Terminal Aerodrome Forecast
Issued by NWS

Home | Current Version | Previous Version | Text Only | Print | Product List | Glossary On
Versions: 1 2 3 4 5 6 7 8 9 10 11 12 13 14 15 16 17
000
FTUS44 KHGX 250520
TAFSGR
TAF
KSGR 250520Z 2506/2606 VRB03KT P6SM SCT250
     FM251500 VRB04KT P6SM VCSH SCT025
     FM251700 18005KT P6SM VCTS BKN035CB PROB30 2517/2523 5SM TSRA
      BR BKN025CB
     FM260200 VRB04KT P6SM VCSH SCT050=

USA.gov is the U.S. government's official web portal to all federal, state and local government web resources and services.